createdAt,value
2022-10-18T00:03:46.334Z,11.67
2022-10-18T00:08:49.560Z,11.58
2022-10-18T00:13:52.850Z,11.49
2022-10-18T00:18:56.159Z,11.50
2022-10-18T00:23:59.441Z,11.46
2022-10-18T00:29:05.310Z,11.45
2022-10-18T00:34:13.830Z,11.46
2022-10-18T00:39:19.396Z,11.47
2022-10-18T00:44:25.758Z,11.47
2022-10-18T00:49:35.764Z,11.45
2022-10-18T00:54:42.070Z,11.44
2022-10-18T00:59:46.916Z,11.37
2022-10-18T01:04:51.440Z,11.35
2022-10-18T01:10:22.023Z,11.42
2022-10-18T01:15:30.926Z,11.39
2022-10-18T01:20:47.712Z,11.29
2022-10-18T01:26:01.122Z,11.20
2022-10-18T01:31:18.894Z,11.12
2022-10-18T01:36:35.599Z,11.05
2022-10-18T01:41:41.458Z,10.94
2022-10-18T01:46:45.201Z,10.84
2022-10-18T01:51:48.437Z,10.77
2022-10-18T01:57:02.447Z,10.75
2022-10-18T02:02:08.861Z,10.74
2022-10-18T02:07:31.987Z,10.75
2022-10-18T02:12:35.233Z,10.75
2022-10-18T02:17:38.381Z,10.72
2022-10-18T02:22:42.977Z,10.69
2022-10-18T02:27:46.699Z,10.64
2022-10-18T02:33:16.454Z,10.60
2022-10-18T02:38:20.726Z,10.54
2022-10-18T02:43:27.203Z,10.50
2022-10-18T02:48:30.544Z,10.48
2022-10-18T02:53:33.795Z,10.45
2022-10-18T02:58:37.099Z,10.42
2022-10-18T03:03:40.367Z,10.39
2022-10-18T03:08:43.773Z,10.39
2022-10-18T03:13:47.147Z,10.39
2022-10-18T03:18:53.685Z,10.31
2022-10-18T03:23:58.893Z,10.25
2022-10-18T03:29:02.444Z,10.22
2022-10-18T03:34:05.788Z,10.20
2022-10-18T03:39:09.355Z,10.17
2022-10-18T03:44:12.710Z,10.10
2022-10-18T03:49:16.115Z,10.04
2022-10-18T03:54:19.514Z,10.04
2022-10-18T03:59:23.314Z,10.05
2022-10-18T04:04:26.566Z,10.01
2022-10-18T04:09:29.852Z,9.96
2022-10-18T04:14:42.056Z,9.91
2022-10-18T04:19:45.466Z,9.83
2022-10-18T04:24:49.472Z,9.74
2022-10-18T04:29:52.749Z,9.62
2022-10-18T04:34:55.944Z,9.51
2022-10-18T04:39:59.416Z,9.47
2022-10-18T04:45:02.758Z,9.46
2022-10-18T04:50:12.812Z,9.44
2022-10-18T04:55:19.393Z,9.42
2022-10-18T05:00:24.280Z,9.39
2022-10-18T05:05:50.012Z,9.35
2022-10-18T05:10:55.430Z,9.33
2022-10-18T05:16:00.566Z,9.34
2022-10-18T05:21:04.065Z,9.35
2022-10-18T05:26:07.899Z,9.32
2022-10-18T05:31:12.080Z,9.32
2022-10-18T05:36:15.867Z,9.35
2022-10-18T05:41:22.451Z,9.39
2022-10-18T05:46:27.744Z,9.45
2022-10-18T05:51:31.084Z,9.50
2022-10-18T05:56:34.616Z,9.56
2022-10-18T06:01:45.604Z,9.64
2022-10-18T06:06:54.763Z,9.77
2022-10-18T06:11:58.619Z,9.95
2022-10-18T06:17:02.955Z,10.19
2022-10-18T06:22:06.213Z,10.44
2022-10-18T06:27:18.515Z,10.74
2022-10-18T06:32:30.698Z,11.03
2022-10-18T06:37:37.305Z,11.26
2022-10-18T06:42:50.941Z,11.50
2022-10-18T06:48:04.271Z,11.69
2022-10-18T06:53:10.496Z,11.88
2022-10-18T06:58:16.567Z,12.07
2022-10-18T07:03:22.013Z,12.30
2022-10-18T07:08:27.075Z,12.49
2022-10-18T07:13:33.100Z,12.66
2022-10-18T07:18:49.176Z,12.83
2022-10-18T07:24:07.530Z,13.02
2022-10-18T07:29:12.405Z,13.20
2022-10-18T07:34:16.061Z,13.41
2022-10-18T07:39:20.655Z,13.64
2022-10-18T07:44:25.306Z,13.88
2022-10-18T07:49:31.748Z,14.14
2022-10-18T07:54:35.327Z,14.40
2022-10-18T07:59:39.641Z,14.71
2022-10-18T08:04:45.795Z,15.05
2022-10-18T08:09:49.073Z,15.36
2022-10-18T08:14:52.289Z,15.70
2022-10-18T08:20:11.877Z,16.03
2022-10-18T08:25:18.880Z,16.31
2022-10-18T08:30:23.636Z,16.60
2022-10-18T08:35:27.248Z,17.01
2022-10-18T08:40:34.970Z,17.39
2022-10-18T08:45:43.113Z,17.73
2022-10-18T08:50:50.058Z,18.09
2022-10-18T08:56:16.404Z,18.45
2022-10-18T09:01:44.536Z,18.81
2022-10-18T09:07:13.457Z,19.17
2022-10-18T09:12:44.955Z,19.52
2022-10-18T09:17:54.477Z,19.92
2022-10-18T09:23:20.702Z,20.21
2022-10-18T09:28:39.309Z,20.43
2022-10-18T09:33:45.709Z,20.65
2022-10-18T09:38:52.175Z,20.86
2022-10-18T09:43:55.559Z,21.09
2022-10-18T09:49:20.479Z,21.27
2022-10-18T09:54:34.472Z,21.39
2022-10-18T09:59:41.816Z,21.52
2022-10-18T10:04:45.371Z,21.73
2022-10-18T10:09:49.784Z,22.02
2022-10-18T10:14:53.009Z,22.27
2022-10-18T10:20:04.180Z,22.39
2022-10-18T10:25:08.432Z,22.56
2022-10-18T10:30:28.037Z,22.75
2022-10-18T10:35:48.948Z,22.96
2022-10-18T10:40:57.968Z,23.18
2022-10-18T10:46:11.868Z,23.29
2022-10-18T10:51:17.810Z,23.18
2022-10-18T10:56:29.606Z,23.04
2022-10-18T11:01:33.968Z,22.96
2022-10-18T11:06:40.050Z,22.89
2022-10-18T11:11:52.243Z,22.84
2022-10-18T11:17:08.091Z,22.87
2022-10-18T11:22:19.020Z,22.94
2022-10-18T11:28:02.770Z,23.03
2022-10-18T11:33:18.182Z,23.31
2022-10-18T11:38:40.546Z,23.18
2022-10-18T11:44:02.279Z,22.72
2022-10-18T11:49:13.931Z,22.51
2022-10-18T11:54:36.780Z,22.57
2022-10-18T12:00:10.128Z,22.77
2022-10-18T12:05:23.978Z,22.99
2022-10-18T12:10:44.140Z,23.08
2022-10-18T12:15:53.150Z,22.88
2022-10-18T12:20:58.479Z,22.80
2022-10-18T12:26:05.148Z,22.93
2022-10-18T12:31:08.317Z,23.02
2022-10-18T12:36:20.797Z,22.87
2022-10-18T12:41:29.901Z,22.63
2022-10-18T12:47:05.164Z,22.42
2022-10-18T12:52:22.470Z,22.18
2022-10-18T12:57:49.223Z,21.98
2022-10-18T13:03:14.575Z,21.85
2022-10-18T13:08:38.266Z,21.87
2022-10-18T13:13:56.875Z,21.93
2022-10-18T13:19:26.595Z,22.06
2022-10-18T13:24:44.978Z,22.32
2022-10-18T13:29:56.664Z,22.51
2022-10-18T13:35:41.875Z,22.69
2022-10-18T13:41:08.189Z,22.77
2022-10-18T13:46:12.040Z,22.58
2022-10-18T13:51:38.183Z,22.29
2022-10-18T13:57:04.415Z,21.99
2022-10-18T14:02:50.328Z,21.61
2022-10-18T14:08:14.973Z,21.16
2022-10-18T14:19:29.426Z,20.36
2022-10-18T14:24:36.047Z,19.93
2022-10-18T14:29:52.186Z,19.37
2022-10-18T14:35:31.223Z,18.64
2022-10-18T14:40:56.171Z,17.93
2022-10-18T14:46:29.151Z,17.27
2022-10-18T14:51:48.591Z,16.80
2022-10-18T14:57:07.555Z,16.39
2022-10-18T15:02:26.739Z,15.92
2022-10-18T15:07:37.995Z,15.54
2022-10-18T15:13:04.546Z,15.28
2022-10-18T15:18:09.150Z,15.09
2022-10-18T15:23:35.611Z,14.91
2022-10-18T15:28:50.161Z,14.79
2022-10-18T15:33:58.116Z,14.72
2022-10-18T15:39:08.548Z,14.66
2022-10-18T15:44:48.633Z,14.56
2022-10-18T15:49:58.608Z,14.46
2022-10-18T15:55:32.844Z,14.39
2022-10-18T16:00:55.207Z,14.42
2022-10-18T16:06:08.894Z,14.42
2022-10-18T16:11:19.131Z,14.43
2022-10-18T16:16:25.142Z,14.45
2022-10-18T16:21:35.994Z,14.44
2022-10-18T16:26:46.665Z,14.46
2022-10-18T16:31:56.056Z,14.48
2022-10-18T16:37:12.280Z,14.52
2022-10-18T16:42:16.719Z,14.53
2022-10-18T16:47:26.905Z,14.56
2022-10-18T16:52:39.685Z,14.56
2022-10-18T16:57:44.089Z,14.56
2022-10-18T17:02:51.608Z,14.53
2022-10-18T17:07:56.420Z,14.55
2022-10-18T17:13:00.060Z,14.53
2022-10-18T17:18:12.541Z,14.55
2022-10-18T17:23:20.473Z,14.56
2022-10-18T17:28:26.764Z,14.57
2022-10-18T17:33:30.180Z,14.55
2022-10-18T17:38:34.403Z,14.52
2022-10-18T17:43:41.735Z,14.52
2022-10-18T17:48:46.790Z,14.50
2022-10-18T17:53:50.567Z,14.51
2022-10-18T17:58:56.958Z,14.50
2022-10-18T18:04:01.893Z,14.44
2022-10-18T18:09:08.038Z,14.44
2022-10-18T18:14:17.621Z,14.43
2022-10-18T18:19:24.756Z,14.40
2022-10-18T18:24:32.734Z,14.36
2022-10-18T18:29:36.788Z,14.33
2022-10-18T18:34:43.645Z,14.32
2022-10-18T18:39:48.727Z,14.28
2022-10-18T18:45:07.727Z,14.27
2022-10-18T18:50:11.309Z,14.27
2022-10-18T18:55:16.317Z,14.29
2022-10-18T19:00:19.941Z,14.32
2022-10-18T19:05:25.766Z,14.33
2022-10-18T19:10:29.551Z,14.33
2022-10-18T19:15:35.085Z,14.28
2022-10-18T19:20:47.993Z,14.26
2022-10-18T19:25:57.202Z,14.24
2022-10-18T19:31:00.940Z,14.22
2022-10-18T19:36:05.209Z,14.21
2022-10-18T19:46:37.785Z,14.17
2022-10-18T19:51:45.096Z,14.15
2022-10-18T19:57:01.794Z,14.12
2022-10-18T20:02:07.149Z,14.10
2022-10-18T20:07:11.700Z,14.08
2022-10-18T20:12:15.296Z,14.08
2022-10-18T20:17:21.804Z,14.11
2022-10-18T20:22:25.772Z,14.14
2022-10-18T20:27:31.608Z,14.17
2022-10-18T20:32:38.211Z,14.19
2022-10-18T20:37:41.560Z,14.23
2022-10-18T20:42:47.148Z,14.21
2022-10-18T20:47:50.563Z,14.22
2022-10-18T20:52:57.362Z,14.22
2022-10-18T20:58:11.693Z,14.26
2022-10-18T21:03:15.457Z,14.29
2022-10-18T21:08:19.194Z,14.32
2022-10-18T21:13:23.374Z,14.34
2022-10-18T21:18:31.778Z,14.36
2022-10-18T21:23:36.291Z,14.37
2022-10-18T21:28:39.646Z,14.37
2022-10-18T21:33:46.945Z,14.40
2022-10-18T21:38:52.982Z,14.40
2022-10-18T21:43:56.838Z,14.40
2022-10-18T21:49:00.380Z,14.39
2022-10-18T21:54:04.139Z,14.41
2022-10-18T21:59:12.569Z,14.42
2022-10-18T22:04:21.162Z,14.39
2022-10-18T22:09:24.680Z,14.39
2022-10-18T22:14:28.652Z,14.36
2022-10-18T22:19:32.083Z,14.36
2022-10-18T22:29:44.685Z,14.27
2022-10-18T22:34:49.470Z,14.24
2022-10-18T22:39:52.804Z,14.20
2022-10-18T22:44:58.878Z,14.12
2022-10-18T22:50:03.600Z,14.05
2022-10-18T22:55:07.600Z,13.99
2022-10-18T23:00:13.965Z,13.86
2022-10-18T23:05:17.504Z,13.75
2022-10-18T23:10:20.855Z,13.66
2022-10-18T23:15:26.292Z,13.58
2022-10-18T23:20:29.989Z,13.53
2022-10-18T23:25:36.936Z,13.51
2022-10-18T23:30:42.046Z,13.51
2022-10-18T23:35:49.127Z,13.48
2022-10-18T23:40:52.458Z,13.46
2022-10-18T23:45:56.461Z,13.46
2022-10-18T23:51:00.872Z,13.43
2022-10-18T23:56:17.617Z,13.35
